Alpine Airstrip, AK

6:51 PM AKST on January 24, 2015 (GMT -0900)
Deadhorse Alpine Airstrip | Change Station
CLOSE
Current Station
Airport
Location: Deadhorse Alpine Airstrip,
Elevation: 16 ft
Nearby Weather Stations
Active Advisory: Wind Chill Advisory

Elev 16 ft 70.34 °N, 150.94 °W | Updated 2 hours ago

Mostly Cloudy
Mostly Cloudy
-26 °F
Feels Like -53 °F
N
16
Wind Variable Wind from SW

Today
High -- | Low -- °F
--% Chance of Precip.
Yesterday
High -- | Low -- °F
Precip. -- in
11:46 AM 2:46 PM
Waxing Crescent, 28% visible
Pressure 30.07 in
Visibility 7.0 miles
Clouds Mostly Cloudy 3000 ft
Windchill -53 °F
Dew Point -33 °F
Humidity 69%
Rainfall 0.00 in
Snow Depth Not available.
UV 0 out of 12
Pollen Not available.
Air Quality Not available.
Flu Activity Not available.
METAR PALP 250146Z 22014KT 7SM BKN030 M32/M36 A3007

More Conditions Fewer Conditions

Pressure 30.07 in
Visibility 7.0 miles
Clouds Mostly Cloudy 3000 ft
Windchill -53 °F
Dew Point -33 °F
Humidity 69%
Rainfall 0.00 in
Snow Depth Not available.
UV 0 out of 12
Pollen Not available.
Air Quality Not available.
Flu Activity Not available.
METAR PALP 250146Z 22014KT 7SM BKN030 M32/M36 A3007

More Conditions Fewer Conditions

10-Day Weather Forecast

Almanac

Astronomy

Jan. 24, 2015 Rise Set
Actual Time
Civil Twilight
Nautical Twilight
Astronomical Twilight
Moon
Length of Visible Light
Length of Day
Tomorrow will be .
, % of the Moon is Illuminated

Today's Extremes

State Highs State Lows

Community

WunderPhotos

Upload Photos

1,789,825 photos uploaded!

WunderBlogs® & News

Nearby

Air Quality

  Air Quality AQ Index Pollutant
Not available.

Snow Depth

Station Depth Elevation

Earthquake Activity

City Distance Mag. Time & Date
Minimum magnitude displayed is 2.5.

Coastal Water Temperatures

Place Temperature

Nearby Weather Stations